sensor_id;sensor_type;location;lat;lon;timestamp;P1;durP1;ratioP1;P2;durP2;ratioP2
76194;SDS011;64964;48.694;21.206;2023-12-20T00:00:12;17.30;;;4.47;;
76194;SDS011;64964;48.694;21.206;2023-12-20T00:02:38;15.83;;;6.30;;
76194;SDS011;64964;48.694;21.206;2023-12-20T00:05:03;16.85;;;6.72;;
76194;SDS011;64964;48.694;21.206;2023-12-20T00:07:29;14.50;;;5.53;;
76194;SDS011;64964;48.694;21.206;2023-12-20T00:09:54;18.25;;;5.07;;
76194;SDS011;64964;48.694;21.206;2023-12-20T00:12:19;26.93;;;8.43;;
76194;SDS011;64964;48.694;21.206;2023-12-20T00:14:45;19.30;;;7.83;;
76194;SDS011;64964;48.694;21.206;2023-12-20T00:17:10;14.43;;;6.50;;
76194;SDS011;64964;48.694;21.206;2023-12-20T00:19:35;14.63;;;5.47;;
76194;SDS011;64964;48.694;21.206;2023-12-20T00:22:01;21.60;;;6.40;;
76194;SDS011;64964;48.694;21.206;2023-12-20T00:24:26;19.00;;;6.90;;
76194;SDS011;64964;48.694;21.206;2023-12-20T00:26:52;11.77;;;5.53;;
76194;SDS011;64964;48.694;21.206;2023-12-20T00:29:17;18.60;;;6.70;;
76194;SDS011;64964;48.694;21.206;2023-12-20T00:31:43;21.97;;;8.03;;
76194;SDS011;64964;48.694;21.206;2023-12-20T00:34:08;19.50;;;6.47;;
76194;SDS011;64964;48.694;21.206;2023-12-20T00:36:33;16.55;;;5.70;;
76194;SDS011;64964;48.694;21.206;2023-12-20T00:38:59;19.97;;;7.57;;
76194;SDS011;64964;48.694;21.206;2023-12-20T00:41:24;17.23;;;7.23;;
76194;SDS011;64964;48.694;21.206;2023-12-20T00:43:50;19.87;;;6.80;;
76194;SDS011;64964;48.694;21.206;2023-12-20T00:46:15;21.43;;;7.53;;
76194;SDS011;64964;48.694;21.206;2023-12-20T00:48:40;19.73;;;6.33;;
76194;SDS011;64964;48.694;21.206;2023-12-20T00:51:07;14.77;;;6.90;;
76194;SDS011;64964;48.694;21.206;2023-12-20T00:53:32;13.45;;;5.68;;
76194;SDS011;64964;48.694;21.206;2023-12-20T00:55:58;23.27;;;8.80;;
76194;SDS011;64964;48.694;21.206;2023-12-20T00:58:23;10.73;;;5.33;;
76194;SDS011;64964;48.694;21.206;2023-12-20T01:00:49;15.33;;;6.00;;
76194;SDS011;64964;48.694;21.206;2023-12-20T01:03:14;25.38;;;7.07;;
76194;SDS011;64964;48.694;21.206;2023-12-20T01:05:40;10.03;;;4.77;;
76194;SDS011;64964;48.694;21.206;2023-12-20T01:08:05;15.67;;;6.00;;
76194;SDS011;64964;48.694;21.206;2023-12-20T01:10:31;21.27;;;7.32;;
76194;SDS011;64964;48.694;21.206;2023-12-20T01:12:57;23.70;;;7.90;;
76194;SDS011;64964;48.694;21.206;2023-12-20T01:15:22;23.17;;;8.00;;
76194;SDS011;64964;48.694;21.206;2023-12-20T01:17:48;19.38;;;6.63;;
76194;SDS011;64964;48.694;21.206;2023-12-20T01:20:14;18.92;;;5.70;;
76194;SDS011;64964;48.694;21.206;2023-12-20T01:22:39;12.70;;;5.40;;
76194;SDS011;64964;48.694;21.206;2023-12-20T01:25:05;10.83;;;4.57;;
76194;SDS011;64964;48.694;21.206;2023-12-20T01:27:31;20.73;;;6.78;;
76194;SDS011;64964;48.694;21.206;2023-12-20T01:29:57;14.90;;;3.60;;
76194;SDS011;64964;48.694;21.206;2023-12-20T01:32:22;18.80;;;7.50;;
76194;SDS011;64964;48.694;21.206;2023-12-20T01:34:47;24.25;;;7.55;;
76194;SDS011;64964;48.694;21.206;2023-12-20T01:37:13;13.40;;;5.60;;
76194;SDS011;64964;48.694;21.206;2023-12-20T01:39:39;19.48;;;7.45;;
76194;SDS011;64964;48.694;21.206;2023-12-20T01:42:04;19.47;;;6.60;;
76194;SDS011;64964;48.694;21.206;2023-12-20T01:44:30;20.43;;;7.77;;
76194;SDS011;64964;48.694;21.206;2023-12-20T01:46:55;9.70;;;4.70;;
76194;SDS011;64964;48.694;21.206;2023-12-20T01:49:21;23.27;;;8.25;;
76194;SDS011;64964;48.694;21.206;2023-12-20T01:51:47;20.70;;;7.38;;
76194;SDS011;64964;48.694;21.206;2023-12-20T01:54:13;22.83;;;7.93;;
76194;SDS011;64964;48.694;21.206;2023-12-20T01:56:38;21.63;;;8.10;;
76194;SDS011;64964;48.694;21.206;2023-12-20T01:59:04;17.35;;;6.45;;
76194;SDS011;64964;48.694;21.206;2023-12-20T02:01:31;17.98;;;3.90;;
76194;SDS011;64964;48.694;21.206;2023-12-20T02:03:57;16.23;;;6.20;;
76194;SDS011;64964;48.694;21.206;2023-12-20T02:06:23;18.00;;;6.77;;
76194;SDS011;64964;48.694;21.206;2023-12-20T02:08:54;21.75;;;7.10;;
76194;SDS011;64964;48.694;21.206;2023-12-20T02:11:19;18.20;;;7.23;;
76194;SDS011;64964;48.694;21.206;2023-12-20T02:13:46;19.58;;;7.53;;
76194;SDS011;64964;48.694;21.206;2023-12-20T02:16:11;20.70;;;6.83;;
76194;SDS011;64964;48.694;21.206;2023-12-20T02:18:37;20.80;;;7.65;;
76194;SDS011;64964;48.694;21.206;2023-12-20T02:21:04;19.53;;;7.77;;
76194;SDS011;64964;48.694;21.206;2023-12-20T02:23:30;20.48;;;7.10;;
76194;SDS011;64964;48.694;21.206;2023-12-20T02:25:55;14.43;;;5.57;;
76194;SDS011;64964;48.694;21.206;2023-12-20T02:28:20;18.03;;;7.33;;
76194;SDS011;64964;48.694;21.206;2023-12-20T02:30:47;20.98;;;7.97;;
76194;SDS011;64964;48.694;21.206;2023-12-20T02:33:14;19.00;;;7.25;;
76194;SDS011;64964;48.694;21.206;2023-12-20T02:35:40;22.92;;;7.70;;
76194;SDS011;64964;48.694;21.206;2023-12-20T02:38:06;17.23;;;7.37;;
76194;SDS011;64964;48.694;21.206;2023-12-20T02:40:31;17.07;;;6.37;;
76194;SDS011;64964;48.694;21.206;2023-12-20T02:42:57;23.93;;;8.10;;
76194;SDS011;64964;48.694;21.206;2023-12-20T02:45:22;20.17;;;8.33;;
76194;SDS011;64964;48.694;21.206;2023-12-20T02:47:47;19.53;;;6.80;;
76194;SDS011;64964;48.694;21.206;2023-12-20T02:50:13;11.53;;;5.23;;
76194;SDS011;64964;48.694;21.206;2023-12-20T02:52:38;15.87;;;6.27;;
76194;SDS011;64964;48.694;21.206;2023-12-20T02:55:04;14.97;;;5.90;;
76194;SDS011;64964;48.694;21.206;2023-12-20T02:57:29;19.65;;;7.07;;
76194;SDS011;64964;48.694;21.206;2023-12-20T02:59:55;20.87;;;7.17;;
76194;SDS011;64964;48.694;21.206;2023-12-20T03:02:20;17.20;;;6.70;;
76194;SDS011;64964;48.694;21.206;2023-12-20T03:04:45;11.20;;;4.07;;
76194;SDS011;64964;48.694;21.206;2023-12-20T03:07:10;19.70;;;7.73;;
76194;SDS011;64964;48.694;21.206;2023-12-20T03:09:37;21.38;;;7.97;;
76194;SDS011;64964;48.694;21.206;2023-12-20T03:12:02;13.37;;;4.97;;
76194;SDS011;64964;48.694;21.206;2023-12-20T03:14:28;20.30;;;7.55;;
76194;SDS011;64964;48.694;21.206;2023-12-20T03:16:53;14.30;;;5.87;;
76194;SDS011;64964;48.694;21.206;2023-12-20T03:19:18;26.10;;;6.53;;
76194;SDS011;64964;48.694;21.206;2023-12-20T03:21:44;14.53;;;5.33;;
76194;SDS011;64964;48.694;21.206;2023-12-20T03:24:10;15.93;;;6.78;;
76194;SDS011;64964;48.694;21.206;2023-12-20T03:26:35;16.50;;;6.57;;
76194;SDS011;64964;48.694;21.206;2023-12-20T03:29:00;12.20;;;5.13;;
76194;SDS011;64964;48.694;21.206;2023-12-20T03:31:26;12.83;;;3.53;;
76194;SDS011;64964;48.694;21.206;2023-12-20T03:33:51;20.43;;;7.13;;
76194;SDS011;64964;48.694;21.206;2023-12-20T03:36:18;13.82;;;5.63;;
76194;SDS011;64964;48.694;21.206;2023-12-20T03:38:44;16.85;;;6.43;;
76194;SDS011;64964;48.694;21.206;2023-12-20T03:41:09;18.13;;;6.23;;
76194;SDS011;64964;48.694;21.206;2023-12-20T03:43:35;16.97;;;5.73;;
76194;SDS011;64964;48.694;21.206;2023-12-20T03:46:00;12.60;;;4.23;;
76194;SDS011;64964;48.694;21.206;2023-12-20T03:48:25;15.77;;;6.37;;
76194;SDS011;64964;48.694;21.206;2023-12-20T03:50:51;21.55;;;6.72;;
76194;SDS011;64964;48.694;21.206;2023-12-20T03:53:16;18.10;;;6.50;;
76194;SDS011;64964;48.694;21.206;2023-12-20T03:55:42;16.27;;;6.83;;
76194;SDS011;64964;48.694;21.206;2023-12-20T03:58:07;15.15;;;5.63;;
76194;SDS011;64964;48.694;21.206;2023-12-20T04:00:32;17.77;;;7.00;;
76194;SDS011;64964;48.694;21.206;2023-12-20T04:02:58;15.77;;;5.67;;
76194;SDS011;64964;48.694;21.206;2023-12-20T04:05:23;6.57;;;3.60;;
76194;SDS011;64964;48.694;21.206;2023-12-20T04:07:48;4.20;;;1.83;;
76194;SDS011;64964;48.694;21.206;2023-12-20T04:10:15;18.35;;;6.22;;
76194;SDS011;64964;48.694;21.206;2023-12-20T04:12:40;17.53;;;6.53;;
76194;SDS011;64964;48.694;21.206;2023-12-20T04:15:06;17.20;;;6.80;;
76194;SDS011;64964;48.694;21.206;2023-12-20T04:17:34;13.82;;;6.28;;
76194;SDS011;64964;48.694;21.206;2023-12-20T04:20:00;13.38;;;4.28;;
76194;SDS011;64964;48.694;21.206;2023-12-20T04:22:26;15.83;;;6.67;;
76194;SDS011;64964;48.694;21.206;2023-12-20T04:24:51;24.53;;;7.30;;
76194;SDS011;64964;48.694;21.206;2023-12-20T04:27:16;12.17;;;4.87;;
76194;SDS011;64964;48.694;21.206;2023-12-20T04:29:42;12.70;;;4.83;;
76194;SDS011;64964;48.694;21.206;2023-12-20T04:32:07;15.00;;;5.93;;
76194;SDS011;64964;48.694;21.206;2023-12-20T04:34:33;16.23;;;6.03;;
76194;SDS011;64964;48.694;21.206;2023-12-20T04:36:58;12.80;;;3.80;;
76194;SDS011;64964;48.694;21.206;2023-12-20T04:39:23;24.67;;;6.43;;
76194;SDS011;64964;48.694;21.206;2023-12-20T04:41:49;18.93;;;6.10;;
76194;SDS011;64964;48.694;21.206;2023-12-20T04:44:15;19.37;;;5.73;;
76194;SDS011;64964;48.694;21.206;2023-12-20T04:46:40;46.10;;;4.55;;
76194;SDS011;64964;48.694;21.206;2023-12-20T04:49:06;16.40;;;8.07;;
76194;SDS011;64964;48.694;21.206;2023-12-20T04:51:34;22.37;;;7.67;;
76194;SDS011;64964;48.694;21.206;2023-12-20T04:54:01;16.95;;;5.72;;
76194;SDS011;64964;48.694;21.206;2023-12-20T04:56:26;11.20;;;4.47;;
76194;SDS011;64964;48.694;21.206;2023-12-20T04:58:52;12.40;;;3.93;;
76194;SDS011;64964;48.694;21.206;2023-12-20T05:01:17;13.03;;;6.57;;
76194;SDS011;64964;48.694;21.206;2023-12-20T05:03:43;15.03;;;5.10;;
76194;SDS011;64964;48.694;21.206;2023-12-20T05:06:09;14.25;;;5.85;;
76194;SDS011;64964;48.694;21.206;2023-12-20T05:08:34;33.30;;;5.10;;
76194;SDS011;64964;48.694;21.206;2023-12-20T05:11:00;20.30;;;6.75;;
76194;SDS011;64964;48.694;21.206;2023-12-20T05:13:25;18.40;;;5.40;;
76194;SDS011;64964;48.694;21.206;2023-12-20T05:15:50;20.20;;;7.17;;
76194;SDS011;64964;48.694;21.206;2023-12-20T05:18:16;20.07;;;5.90;;
76194;SDS011;64964;48.694;21.206;2023-12-20T05:20:41;25.27;;;6.83;;
76194;SDS011;64964;48.694;21.206;2023-12-20T05:23:07;19.27;;;6.63;;
76194;SDS011;64964;48.694;21.206;2023-12-20T05:25:32;18.33;;;5.30;;
76194;SDS011;64964;48.694;21.206;2023-12-20T05:27:58;27.20;;;9.30;;
76194;SDS011;64964;48.694;21.206;2023-12-20T05:30:24;16.97;;;5.87;;
76194;SDS011;64964;48.694;21.206;2023-12-20T05:32:49;18.17;;;7.70;;
76194;SDS011;64964;48.694;21.206;2023-12-20T05:35:14;18.10;;;6.57;;
76194;SDS011;64964;48.694;21.206;2023-12-20T05:37:40;13.00;;;5.37;;
76194;SDS011;64964;48.694;21.206;2023-12-20T05:40:06;10.98;;;4.55;;
76194;SDS011;64964;48.694;21.206;2023-12-20T05:42:35;23.00;;;7.50;;
76194;SDS011;64964;48.694;21.206;2023-12-20T05:45:00;18.25;;;6.82;;
76194;SDS011;64964;48.694;21.206;2023-12-20T05:47:26;19.30;;;6.23;;
76194;SDS011;64964;48.694;21.206;2023-12-20T05:49:51;17.10;;;6.73;;
76194;SDS011;64964;48.694;21.206;2023-12-20T05:52:18;22.58;;;6.82;;
76194;SDS011;64964;48.694;21.206;2023-12-20T05:54:43;12.80;;;5.83;;
76194;SDS011;64964;48.694;21.206;2023-12-20T05:57:08;25.33;;;7.20;;
76194;SDS011;64964;48.694;21.206;2023-12-20T05:59:34;13.53;;;5.50;;
76194;SDS011;64964;48.694;21.206;2023-12-20T06:01:59;18.03;;;6.10;;
76194;SDS011;64964;48.694;21.206;2023-12-20T06:04:24;17.37;;;6.60;;
76194;SDS011;64964;48.694;21.206;2023-12-20T06:06:50;12.40;;;5.97;;
76194;SDS011;64964;48.694;21.206;2023-12-20T06:09:15;13.15;;;5.68;;
76194;SDS011;64964;48.694;21.206;2023-12-20T06:11:40;17.10;;;5.97;;
76194;SDS011;64964;48.694;21.206;2023-12-20T06:14:06;20.93;;;7.47;;
76194;SDS011;64964;48.694;21.206;2023-12-20T06:16:31;22.40;;;7.43;;
76194;SDS011;64964;48.694;21.206;2023-12-20T06:18:56;23.20;;;7.50;;
76194;SDS011;64964;48.694;21.206;2023-12-20T06:21:22;20.40;;;7.23;;
76194;SDS011;64964;48.694;21.206;2023-12-20T06:23:47;18.07;;;7.70;;
76194;SDS011;64964;48.694;21.206;2023-12-20T06:26:12;23.98;;;8.52;;
76194;SDS011;64964;48.694;21.206;2023-12-20T06:28:38;19.27;;;7.57;;
76194;SDS011;64964;48.694;21.206;2023-12-20T06:31:03;21.47;;;8.10;;
76194;SDS011;64964;48.694;21.206;2023-12-20T06:33:29;17.23;;;7.57;;
76194;SDS011;64964;48.694;21.206;2023-12-20T06:35:56;26.40;;;8.55;;
76194;SDS011;64964;48.694;21.206;2023-12-20T06:38:21;21.57;;;7.40;;
76194;SDS011;64964;48.694;21.206;2023-12-20T06:40:46;18.40;;;7.25;;
76194;SDS011;64964;48.694;21.206;2023-12-20T06:43:12;18.00;;;7.47;;
76194;SDS011;64964;48.694;21.206;2023-12-20T06:45:38;19.83;;;7.78;;
76194;SDS011;64964;48.694;21.206;2023-12-20T06:48:04;24.73;;;8.50;;
76194;SDS011;64964;48.694;21.206;2023-12-20T06:50:30;23.05;;;8.48;;
76194;SDS011;64964;48.694;21.206;2023-12-20T06:52:55;18.93;;;6.97;;
76194;SDS011;64964;48.694;21.206;2023-12-20T06:55:20;17.67;;;7.17;;
76194;SDS011;64964;48.694;21.206;2023-12-20T06:57:46;18.33;;;7.40;;
76194;SDS011;64964;48.694;21.206;2023-12-20T07:00:11;22.87;;;7.47;;
76194;SDS011;64964;48.694;21.206;2023-12-20T07:02:37;23.08;;;7.80;;
76194;SDS011;64964;48.694;21.206;2023-12-20T07:05:03;23.57;;;7.37;;
76194;SDS011;64964;48.694;21.206;2023-12-20T07:07:29;21.67;;;8.25;;
76194;SDS011;64964;48.694;21.206;2023-12-20T07:09:54;21.60;;;8.00;;
76194;SDS011;64964;48.694;21.206;2023-12-20T07:12:20;18.10;;;7.80;;
76194;SDS011;64964;48.694;21.206;2023-12-20T07:14:46;19.20;;;7.77;;
76194;SDS011;64964;48.694;21.206;2023-12-20T07:17:11;24.55;;;7.50;;
76194;SDS011;64964;48.694;21.206;2023-12-20T07:19:38;22.37;;;8.30;;
76194;SDS011;64964;48.694;21.206;2023-12-20T07:22:05;22.48;;;7.80;;
76194;SDS011;64964;48.694;21.206;2023-12-20T07:24:31;22.02;;;8.38;;
76194;SDS011;64964;48.694;21.206;2023-12-20T07:26:56;19.97;;;8.03;;
76194;SDS011;64964;48.694;21.206;2023-12-20T07:29:22;27.83;;;8.60;;
76194;SDS011;64964;48.694;21.206;2023-12-20T07:31:47;25.03;;;8.17;;
76194;SDS011;64964;48.694;21.206;2023-12-20T07:34:12;20.40;;;7.82;;
76194;SDS011;64964;48.694;21.206;2023-12-20T07:36:38;21.77;;;7.93;;
76194;SDS011;64964;48.694;21.206;2023-12-20T07:39:03;21.27;;;8.03;;
76194;SDS011;64964;48.694;21.206;2023-12-20T07:41:28;25.03;;;9.23;;
76194;SDS011;64964;48.694;21.206;2023-12-20T07:43:54;20.40;;;8.17;;
76194;SDS011;64964;48.694;21.206;2023-12-20T07:46:21;27.50;;;8.20;;
76194;SDS011;64964;48.694;21.206;2023-12-20T07:48:48;21.83;;;8.43;;
76194;SDS011;64964;48.694;21.206;2023-12-20T07:51:13;24.47;;;8.20;;
76194;SDS011;64964;48.694;21.206;2023-12-20T07:53:39;18.17;;;7.77;;
76194;SDS011;64964;48.694;21.206;2023-12-20T07:56:17;20.73;;;7.60;;
76194;SDS011;64964;48.694;21.206;2023-12-20T07:58:43;21.47;;;9.00;;
76194;SDS011;64964;48.694;21.206;2023-12-20T08:01:10;23.17;;;9.05;;
76194;SDS011;64964;48.694;21.206;2023-12-20T08:03:35;22.48;;;9.00;;
76194;SDS011;64964;48.694;21.206;2023-12-20T08:06:01;21.03;;;8.23;;
76194;SDS011;64964;48.694;21.206;2023-12-20T08:08:27;24.50;;;9.18;;
76194;SDS011;64964;48.694;21.206;2023-12-20T08:10:53;26.63;;;9.30;;
76194;SDS011;64964;48.694;21.206;2023-12-20T08:13:18;16.67;;;6.28;;
76194;SDS011;64964;48.694;21.206;2023-12-20T08:15:43;32.07;;;11.47;;
76194;SDS011;64964;48.694;21.206;2023-12-20T08:18:09;30.70;;;11.67;;
76194;SDS011;64964;48.694;21.206;2023-12-20T08:20:34;24.33;;;9.07;;
76194;SDS011;64964;48.694;21.206;2023-12-20T08:22:59;21.80;;;8.77;;
76194;SDS011;64964;48.694;21.206;2023-12-20T08:25:25;16.90;;;6.63;;
76194;SDS011;64964;48.694;21.206;2023-12-20T08:27:51;15.97;;;6.33;;
76194;SDS011;64964;48.694;21.206;2023-12-20T08:30:16;17.90;;;6.87;;
76194;SDS011;64964;48.694;21.206;2023-12-20T08:32:47;12.45;;;5.60;;
76194;SDS011;64964;48.694;21.206;2023-12-20T08:35:13;20.10;;;6.57;;
76194;SDS011;64964;48.694;21.206;2023-12-20T08:37:38;19.37;;;7.40;;
76194;SDS011;64964;48.694;21.206;2023-12-20T08:40:04;22.67;;;9.07;;
76194;SDS011;64964;48.694;21.206;2023-12-20T08:42:30;17.00;;;6.47;;
76194;SDS011;64964;48.694;21.206;2023-12-20T08:44:57;16.52;;;6.30;;
76194;SDS011;64964;48.694;21.206;2023-12-20T08:47:23;13.73;;;5.33;;
76194;SDS011;64964;48.694;21.206;2023-12-20T08:49:48;19.10;;;6.88;;
76194;SDS011;64964;48.694;21.206;2023-12-20T08:52:14;19.77;;;7.20;;
76194;SDS011;64964;48.694;21.206;2023-12-20T08:54:39;18.27;;;6.97;;
76194;SDS011;64964;48.694;21.206;2023-12-20T08:58:04;16.80;;;6.78;;
76194;SDS011;64964;48.694;21.206;2023-12-20T09:00:31;21.70;;;7.70;;
76194;SDS011;64964;48.694;21.206;2023-12-20T09:02:57;19.90;;;7.93;;
76194;SDS011;64964;48.694;21.206;2023-12-20T09:05:22;23.93;;;8.03;;
76194;SDS011;64964;48.694;21.206;2023-12-20T09:07:47;20.80;;;8.10;;
76194;SDS011;64964;48.694;21.206;2023-12-20T09:10:13;14.50;;;6.23;;
76194;SDS011;64964;48.694;21.206;2023-12-20T09:12:38;19.07;;;8.23;;
76194;SDS011;64964;48.694;21.206;2023-12-20T09:15:06;19.02;;;8.50;;
76194;SDS011;64964;48.694;21.206;2023-12-20T09:17:31;21.33;;;7.97;;
76194;SDS011;64964;48.694;21.206;2023-12-20T09:19:57;21.17;;;8.10;;
76194;SDS011;64964;48.694;21.206;2023-12-20T09:22:22;22.90;;;8.47;;
76194;SDS011;64964;48.694;21.206;2023-12-20T09:24:48;19.30;;;7.87;;
76194;SDS011;64964;48.694;21.206;2023-12-20T09:27:13;15.20;;;6.37;;
76194;SDS011;64964;48.694;21.206;2023-12-20T09:29:38;15.80;;;6.85;;
76194;SDS011;64964;48.694;21.206;2023-12-20T09:32:04;17.57;;;7.50;;
76194;SDS011;64964;48.694;21.206;2023-12-20T09:34:29;14.87;;;6.77;;
76194;SDS011;64964;48.694;21.206;2023-12-20T09:36:55;13.07;;;4.60;;
76194;SDS011;64964;48.694;21.206;2023-12-20T09:39:20;31.30;;;5.00;;
76194;SDS011;64964;48.694;21.206;2023-12-20T09:41:49;22.40;;;7.67;;
76194;SDS011;64964;48.694;21.206;2023-12-20T09:44:24;16.05;;;7.10;;
76194;SDS011;64964;48.694;21.206;2023-12-20T09:46:50;11.63;;;5.32;;
76194;SDS011;64964;48.694;21.206;2023-12-20T09:49:17;15.68;;;6.18;;
76194;SDS011;64964;48.694;21.206;2023-12-20T09:51:44;17.00;;;7.03;;
76194;SDS011;64964;48.694;21.206;2023-12-20T09:54:11;15.43;;;6.47;;
76194;SDS011;64964;48.694;21.206;2023-12-20T09:56:39;17.55;;;7.30;;
76194;SDS011;64964;48.694;21.206;2023-12-20T09:59:04;18.93;;;8.13;;
76194;SDS011;64964;48.694;21.206;2023-12-20T10:01:30;19.60;;;7.97;;
76194;SDS011;64964;48.694;21.206;2023-12-20T10:03:56;18.55;;;7.47;;
76194;SDS011;64964;48.694;21.206;2023-12-20T10:06:25;21.35;;;8.27;;
76194;SDS011;64964;48.694;21.206;2023-12-20T10:08:50;19.93;;;8.33;;
76194;SDS011;64964;48.694;21.206;2023-12-20T10:11:15;15.10;;;6.77;;
76194;SDS011;64964;48.694;21.206;2023-12-20T10:13:42;22.55;;;8.15;;
76194;SDS011;64964;48.694;21.206;2023-12-20T10:16:08;17.38;;;6.70;;
76194;SDS011;64964;48.694;21.206;2023-12-20T10:18:33;26.53;;;8.87;;
76194;SDS011;64964;48.694;21.206;2023-12-20T10:21:00;20.77;;;8.13;;
76194;SDS011;64964;48.694;21.206;2023-12-20T10:23:25;20.05;;;8.15;;
76194;SDS011;64964;48.694;21.206;2023-12-20T10:25:57;16.00;;;6.87;;
76194;SDS011;64964;48.694;21.206;2023-12-20T10:28:23;12.80;;;5.90;;
76194;SDS011;64964;48.694;21.206;2023-12-20T10:30:53;19.38;;;7.38;;
76194;SDS011;64964;48.694;21.206;2023-12-20T10:33:23;23.42;;;10.20;;
76194;SDS011;64964;48.694;21.206;2023-12-20T10:35:51;17.77;;;7.22;;
76194;SDS011;64964;48.694;21.206;2023-12-20T10:38:17;18.83;;;6.90;;
76194;SDS011;64964;48.694;21.206;2023-12-20T10:40:43;20.38;;;7.68;;
76194;SDS011;64964;48.694;21.206;2023-12-20T10:43:10;19.20;;;8.23;;
76194;SDS011;64964;48.694;21.206;2023-12-20T10:45:36;22.65;;;8.05;;
76194;SDS011;64964;48.694;21.206;2023-12-20T10:48:02;23.10;;;8.93;;
76194;SDS011;64964;48.694;21.206;2023-12-20T10:50:29;20.50;;;8.77;;
76194;SDS011;64964;48.694;21.206;2023-12-20T10:52:56;25.25;;;9.40;;
76194;SDS011;64964;48.694;21.206;2023-12-20T10:55:22;19.88;;;8.57;;
76194;SDS011;64964;48.694;21.206;2023-12-20T10:57:49;23.58;;;8.75;;
76194;SDS011;64964;48.694;21.206;2023-12-20T11:00:16;22.43;;;9.13;;
76194;SDS011;64964;48.694;21.206;2023-12-20T11:02:43;24.15;;;8.52;;
76194;SDS011;64964;48.694;21.206;2023-12-20T11:08:17;21.50;;;9.45;;
76194;SDS011;64964;48.694;21.206;2023-12-20T11:11:07;23.83;;;8.87;;
76194;SDS011;64964;48.694;21.206;2023-12-20T11:13:53;23.60;;;9.57;;
76194;SDS011;64964;48.694;21.206;2023-12-20T11:16:24;27.52;;;9.98;;
76194;SDS011;64964;48.694;21.206;2023-12-20T11:18:50;28.33;;;10.43;;
76194;SDS011;64964;48.694;21.206;2023-12-20T11:21:16;23.00;;;9.25;;
76194;SDS011;64964;48.694;21.206;2023-12-20T11:23:42;21.00;;;9.03;;
76194;SDS011;64964;48.694;21.206;2023-12-20T11:26:07;24.37;;;9.97;;
76194;SDS011;64964;48.694;21.206;2023-12-20T11:28:33;22.52;;;9.60;;
76194;SDS011;64964;48.694;21.206;2023-12-20T11:31:00;27.97;;;9.77;;
76194;SDS011;64964;48.694;21.206;2023-12-20T11:33:30;24.83;;;9.82;;
76194;SDS011;64964;48.694;21.206;2023-12-20T11:35:56;25.25;;;9.38;;
76194;SDS011;64964;48.694;21.206;2023-12-20T11:38:24;21.63;;;8.85;;
76194;SDS011;64964;48.694;21.206;2023-12-20T11:40:50;22.60;;;10.30;;
76194;SDS011;64964;48.694;21.206;2023-12-20T11:43:31;24.00;;;10.50;;
76194;SDS011;64964;48.694;21.206;2023-12-20T11:46:06;29.00;;;14.23;;
76194;SDS011;64964;48.694;21.206;2023-12-20T11:48:34;16.27;;;7.10;;
76194;SDS011;64964;48.694;21.206;2023-12-20T11:51:00;31.02;;;13.98;;
76194;SDS011;64964;48.694;21.206;2023-12-20T11:53:27;27.50;;;10.02;;
76194;SDS011;64964;48.694;21.206;2023-12-20T11:55:53;24.50;;;9.67;;
76194;SDS011;64964;48.694;21.206;2023-12-20T11:58:19;26.00;;;10.57;;
76194;SDS011;64964;48.694;21.206;2023-12-20T12:00:45;32.20;;;12.60;;
76194;SDS011;64964;48.694;21.206;2023-12-20T12:03:10;74.37;;;25.50;;
76194;SDS011;64964;48.694;21.206;2023-12-20T12:05:39;43.15;;;15.32;;
76194;SDS011;64964;48.694;21.206;2023-12-20T12:08:05;30.87;;;10.80;;
76194;SDS011;64964;48.694;21.206;2023-12-20T12:10:30;16.38;;;7.07;;
76194;SDS011;64964;48.694;21.206;2023-12-20T12:12:56;23.90;;;9.23;;
76194;SDS011;64964;48.694;21.206;2023-12-20T12:15:21;27.57;;;9.57;;
76194;SDS011;64964;48.694;21.206;2023-12-20T12:17:55;68.83;;;21.83;;
76194;SDS011;64964;48.694;21.206;2023-12-20T12:20:21;77.30;;;25.10;;
76194;SDS011;64964;48.694;21.206;2023-12-20T12:23:00;42.45;;;14.05;;
76194;SDS011;64964;48.694;21.206;2023-12-20T12:25:29;41.28;;;12.80;;
76194;SDS011;64964;48.694;21.206;2023-12-20T12:27:56;45.28;;;15.02;;
76194;SDS011;64964;48.694;21.206;2023-12-20T12:30:22;35.60;;;11.90;;
76194;SDS011;64964;48.694;21.206;2023-12-20T12:32:48;28.87;;;10.33;;
76194;SDS011;64964;48.694;21.206;2023-12-20T12:35:13;33.77;;;11.63;;
76194;SDS011;64964;48.694;21.206;2023-12-20T12:37:39;43.35;;;13.90;;
76194;SDS011;64964;48.694;21.206;2023-12-20T12:40:09;34.40;;;14.50;;
76194;SDS011;64964;48.694;21.206;2023-12-20T12:42:36;25.52;;;10.02;;
76194;SDS011;64964;48.694;21.206;2023-12-20T12:45:02;27.85;;;10.13;;
76194;SDS011;64964;48.694;21.206;2023-12-20T12:47:28;27.10;;;10.50;;
76194;SDS011;64964;48.694;21.206;2023-12-20T12:49:53;27.20;;;10.02;;
76194;SDS011;64964;48.694;21.206;2023-12-20T12:52:19;23.17;;;9.37;;
76194;SDS011;64964;48.694;21.206;2023-12-20T12:54:45;24.95;;;10.15;;
76194;SDS011;64964;48.694;21.206;2023-12-20T12:57:11;24.13;;;9.87;;
76194;SDS011;64964;48.694;21.206;2023-12-20T12:59:36;25.58;;;10.20;;
76194;SDS011;64964;48.694;21.206;2023-12-20T13:02:02;22.40;;;9.07;;
76194;SDS011;64964;48.694;21.206;2023-12-20T13:04:27;19.50;;;9.07;;
76194;SDS011;64964;48.694;21.206;2023-12-20T13:06:52;19.60;;;8.10;;
76194;SDS011;64964;48.694;21.206;2023-12-20T13:09:18;23.80;;;8.85;;
76194;SDS011;64964;48.694;21.206;2023-12-20T13:11:44;21.63;;;8.60;;
76194;SDS011;64964;48.694;21.206;2023-12-20T13:14:09;22.03;;;8.60;;
76194;SDS011;64964;48.694;21.206;2023-12-20T13:16:40;21.40;;;9.50;;
76194;SDS011;64964;48.694;21.206;2023-12-20T13:19:06;23.92;;;9.75;;
76194;SDS011;64964;48.694;21.206;2023-12-20T13:21:31;23.50;;;10.13;;
76194;SDS011;64964;48.694;21.206;2023-12-20T13:23:56;24.63;;;9.90;;
76194;SDS011;64964;48.694;21.206;2023-12-20T13:26:22;24.38;;;10.68;;
76194;SDS011;64964;48.694;21.206;2023-12-20T13:28:47;24.63;;;10.10;;
76194;SDS011;64964;48.694;21.206;2023-12-20T13:31:12;24.60;;;9.40;;
76194;SDS011;64964;48.694;21.206;2023-12-20T13:33:38;24.17;;;10.13;;
76194;SDS011;64964;48.694;21.206;2023-12-20T13:36:04;27.08;;;9.80;;
76194;SDS011;64964;48.694;21.206;2023-12-20T13:38:30;26.03;;;9.77;;
76194;SDS011;64964;48.694;21.206;2023-12-20T13:40:55;28.02;;;10.50;;
76194;SDS011;64964;48.694;21.206;2023-12-20T13:43:20;33.90;;;12.17;;
76194;SDS011;64964;48.694;21.206;2023-12-20T13:45:47;30.80;;;12.52;;
76194;SDS011;64964;48.694;21.206;2023-12-20T13:48:13;36.90;;;14.07;;
76194;SDS011;64964;48.694;21.206;2023-12-20T13:50:38;33.83;;;13.40;;
76194;SDS011;64964;48.694;21.206;2023-12-20T13:53:04;31.53;;;12.27;;
76194;SDS011;64964;48.694;21.206;2023-12-20T13:55:29;36.80;;;13.10;;
76194;SDS011;64964;48.694;21.206;2023-12-20T13:57:55;35.55;;;13.13;;
76194;SDS011;64964;48.694;21.206;2023-12-20T14:00:21;33.23;;;12.80;;
76194;SDS011;64964;48.694;21.206;2023-12-20T14:02:47;35.93;;;13.87;;
76194;SDS011;64964;48.694;21.206;2023-12-20T14:05:13;37.20;;;13.80;;
76194;SDS011;64964;48.694;21.206;2023-12-20T14:07:42;32.33;;;13.00;;
76194;SDS011;64964;48.694;21.206;2023-12-20T14:10:11;27.08;;;10.00;;
76194;SDS011;64964;48.694;21.206;2023-12-20T14:12:38;36.88;;;14.23;;
76194;SDS011;64964;48.694;21.206;2023-12-20T14:15:04;29.97;;;12.90;;
76194;SDS011;64964;48.694;21.206;2023-12-20T14:17:36;34.22;;;12.15;;